sensor_id;sensor_type;location;lat;lon;timestamp;pressure;altitude;pressure_sealevel;temperature;humidity
62895;BME280;49204;44.916;37.998;2022-08-05T00:01:16;100931.91;;;19.89;79.39
62895;BME280;49204;44.916;37.998;2022-08-05T00:03:50;100930.19;;;19.88;79.70
62895;BME280;49204;44.916;37.998;2022-08-05T00:06:18;100925.33;;;19.87;79.82
62895;BME280;49204;44.916;37.998;2022-08-05T00:08:47;100915.25;;;19.85;79.99
62895;BME280;49204;44.916;37.998;2022-08-05T00:11:16;100915.47;;;19.82;80.01
62895;BME280;49204;44.916;37.998;2022-08-05T00:13:44;100912.17;;;19.78;80.13
62895;BME280;49204;44.916;37.998;2022-08-05T00:16:14;100910.95;;;19.77;80.23
62895;BME280;49204;44.916;37.998;2022-08-05T00:18:45;100917.27;;;19.76;80.19
62895;BME280;49204;44.916;37.998;2022-08-05T00:21:16;100912.16;;;19.73;80.42
62895;BME280;49204;44.916;37.998;2022-08-05T00:23:46;100923.79;;;19.72;80.69
62895;BME280;49204;44.916;37.998;2022-08-05T00:26:15;100920.00;;;19.68;80.68
62895;BME280;49204;44.916;37.998;2022-08-05T00:28:46;100919.62;;;19.67;80.64
62895;BME280;49204;44.916;37.998;2022-08-05T00:31:14;100924.96;;;19.67;80.50
62895;BME280;49204;44.916;37.998;2022-08-05T00:33:43;100925.56;;;19.65;80.24
62895;BME280;49204;44.916;37.998;2022-08-05T00:36:11;100923.49;;;19.63;80.45
62895;BME280;49204;44.916;37.998;2022-08-05T00:38:41;100928.07;;;19.56;80.89
62895;BME280;49204;44.916;37.998;2022-08-05T00:41:10;100923.41;;;19.46;81.08
62895;BME280;49204;44.916;37.998;2022-08-05T00:43:39;100924.12;;;19.43;80.82
62895;BME280;49204;44.916;37.998;2022-08-05T00:46:07;100929.64;;;19.34;80.80
62895;BME280;49204;44.916;37.998;2022-08-05T00:48:36;100920.86;;;19.26;81.19
62895;BME280;49204;44.916;37.998;2022-08-05T00:51:04;100922.65;;;19.20;81.52
62895;BME280;49204;44.916;37.998;2022-08-05T00:53:33;100922.86;;;19.17;81.85
62895;BME280;49204;44.916;37.998;2022-08-05T00:56:02;100929.28;;;19.15;82.07
62895;BME280;49204;44.916;37.998;2022-08-05T00:58:31;100927.08;;;19.14;82.28
62895;BME280;49204;44.916;37.998;2022-08-05T01:00:59;100922.48;;;19.16;81.98
62895;BME280;49204;44.916;37.998;2022-08-05T01:03:28;100927.61;;;19.19;82.09
62895;BME280;49204;44.916;37.998;2022-08-05T01:05:56;100925.78;;;19.20;82.33
62895;BME280;49204;44.916;37.998;2022-08-05T01:08:25;100934.55;;;19.22;82.34
62895;BME280;49204;44.916;37.998;2022-08-05T01:10:58;100930.41;;;19.23;82.25
62895;BME280;49204;44.916;37.998;2022-08-05T01:16:09;100924.38;;;19.27;82.23
62895;BME280;49204;44.916;37.998;2022-08-05T01:18:45;100920.64;;;19.29;82.02
62895;BME280;49204;44.916;37.998;2022-08-05T01:23:54;100916.22;;;19.23;82.21
62895;BME280;49204;44.916;37.998;2022-08-05T01:26:34;100910.64;;;19.20;82.25
62895;BME280;49204;44.916;37.998;2022-08-05T01:29:15;100914.01;;;19.17;82.13
62895;BME280;49204;44.916;37.998;2022-08-05T01:31:52;100921.98;;;19.11;82.37
62895;BME280;49204;44.916;37.998;2022-08-05T01:34:27;100916.22;;;19.04;82.59
62895;BME280;49204;44.916;37.998;2022-08-05T01:39:34;100920.86;;;19.08;82.38
62895;BME280;49204;44.916;37.998;2022-08-05T01:42:05;100916.85;;;19.08;82.37
62895;BME280;49204;44.916;37.998;2022-08-05T01:44:36;100910.92;;;19.10;82.51
62895;BME280;49204;44.916;37.998;2022-08-05T01:47:07;100918.19;;;19.08;82.56
62895;BME280;49204;44.916;37.998;2022-08-05T01:49:38;100913.89;;;19.00;82.60
62895;BME280;49204;44.916;37.998;2022-08-05T01:52:07;100909.08;;;18.92;82.91
62895;BME280;49204;44.916;37.998;2022-08-05T01:54:39;100908.39;;;18.96;82.90
62895;BME280;49204;44.916;37.998;2022-08-05T01:57:09;100906.59;;;18.96;82.84
62895;BME280;49204;44.916;37.998;2022-08-05T01:59:40;100900.98;;;18.94;83.20
62895;BME280;49204;44.916;37.998;2022-08-05T02:02:11;100908.83;;;18.89;83.55
62895;BME280;49204;44.916;37.998;2022-08-05T02:04:42;100902.16;;;18.89;83.64
62895;BME280;49204;44.916;37.998;2022-08-05T02:07:12;100898.20;;;18.95;83.79
62895;BME280;49204;44.916;37.998;2022-08-05T02:09:41;100899.78;;;18.98;83.76
62895;BME280;49204;44.916;37.998;2022-08-05T02:17:44;100903.44;;;18.97;83.80
62895;BME280;49204;44.916;37.998;2022-08-05T02:20:16;100907.44;;;18.97;83.74
62895;BME280;49204;44.916;37.998;2022-08-05T02:22:47;100907.44;;;18.97;83.50
62895;BME280;49204;44.916;37.998;2022-08-05T02:25:24;100908.03;;;18.95;83.92
62895;BME280;49204;44.916;37.998;2022-08-05T02:27:55;100916.98;;;18.94;84.07
62895;BME280;49204;44.916;37.998;2022-08-05T02:30:27;100920.39;;;18.96;83.91
62895;BME280;49204;44.916;37.998;2022-08-05T02:32:57;100912.77;;;18.97;84.23
62895;BME280;49204;44.916;37.998;2022-08-05T02:35:28;100909.52;;;18.99;84.33
62895;BME280;49204;44.916;37.998;2022-08-05T02:37:58;100905.65;;;19.03;84.16
62895;BME280;49204;44.916;37.998;2022-08-05T02:40:28;100909.94;;;19.05;84.16
62895;BME280;49204;44.916;37.998;2022-08-05T02:42:59;100911.52;;;19.08;84.04
62895;BME280;49204;44.916;37.998;2022-08-05T02:45:29;100908.14;;;19.12;84.07
62895;BME280;49204;44.916;37.998;2022-08-05T02:48:00;100905.38;;;19.13;83.78
62895;BME280;49204;44.916;37.998;2022-08-05T02:50:30;100911.59;;;19.19;84.06
62895;BME280;49204;44.916;37.998;2022-08-05T02:53:00;100912.04;;;19.32;84.09
62895;BME280;49204;44.916;37.998;2022-08-05T02:55:30;100910.66;;;19.44;84.08
62895;BME280;49204;44.916;37.998;2022-08-05T02:58:00;100908.88;;;19.56;84.00
62895;BME280;49204;44.916;37.998;2022-08-05T03:00:30;100908.09;;;19.67;83.87
62895;BME280;49204;44.916;37.998;2022-08-05T03:03:01;100909.61;;;19.77;83.60
62895;BME280;49204;44.916;37.998;2022-08-05T03:05:31;100916.59;;;19.85;83.19
62895;BME280;49204;44.916;37.998;2022-08-05T03:08:00;100914.08;;;20.00;82.82
62895;BME280;49204;44.916;37.998;2022-08-05T03:10:29;100918.63;;;20.17;82.39
62895;BME280;49204;44.916;37.998;2022-08-05T03:12:58;100916.45;;;20.22;82.08
62895;BME280;49204;44.916;37.998;2022-08-05T03:15:26;100924.97;;;20.21;81.76
62895;BME280;49204;44.916;37.998;2022-08-05T03:17:55;100922.53;;;20.24;81.60
62895;BME280;49204;44.916;37.998;2022-08-05T03:20:24;100921.09;;;20.31;81.43
62895;BME280;49204;44.916;37.998;2022-08-05T03:22:54;100923.16;;;20.39;81.28
62895;BME280;49204;44.916;37.998;2022-08-05T03:25:23;100922.95;;;20.48;80.97
62895;BME280;49204;44.916;37.998;2022-08-05T03:27:54;100920.89;;;20.57;80.83
62895;BME280;49204;44.916;37.998;2022-08-05T03:30:24;100920.92;;;20.68;80.71
62895;BME280;49204;44.916;37.998;2022-08-05T03:32:53;100918.86;;;20.77;80.41
62895;BME280;49204;44.916;37.998;2022-08-05T03:35:22;100918.86;;;20.83;79.67
62895;BME280;49204;44.916;37.998;2022-08-05T03:37:52;100924.09;;;20.90;79.35
62895;BME280;49204;44.916;37.998;2022-08-05T03:40:21;100921.02;;;21.00;79.37
62895;BME280;49204;44.916;37.998;2022-08-05T03:42:49;100916.77;;;21.04;78.74
62895;BME280;49204;44.916;37.998;2022-08-05T03:45:18;100911.79;;;21.10;78.82
62895;BME280;49204;44.916;37.998;2022-08-05T03:47:47;100917.12;;;21.21;78.75
62895;BME280;49204;44.916;37.998;2022-08-05T03:50:16;100911.12;;;21.35;78.47
62895;BME280;49204;44.916;37.998;2022-08-05T03:52:50;100917.20;;;21.48;78.26
62895;BME280;49204;44.916;37.998;2022-08-05T03:55:33;100914.33;;;21.67;78.12
62895;BME280;49204;44.916;37.998;2022-08-05T03:57:52;100915.23;;;21.88;77.93
62895;BME280;49204;44.916;37.998;2022-08-05T04:00:23;100911.08;;;22.11;77.62
62895;BME280;49204;44.916;37.998;2022-08-05T04:02:55;100917.67;;;22.33;77.08
62895;BME280;49204;44.916;37.998;2022-08-05T04:05:30;100917.17;;;22.55;76.44
62895;BME280;49204;44.916;37.998;2022-08-05T04:08:02;100910.19;;;22.73;75.49
62895;BME280;49204;44.916;37.998;2022-08-05T04:10:32;100922.49;;;22.91;74.56
62895;BME280;49204;44.916;37.998;2022-08-05T04:13:01;100920.91;;;23.20;74.21
62895;BME280;49204;44.916;37.998;2022-08-05T04:15:31;100923.86;;;23.51;73.71
62895;BME280;49204;44.916;37.998;2022-08-05T04:18:06;100915.06;;;23.84;73.14
62895;BME280;49204;44.916;37.998;2022-08-05T04:20:35;100917.03;;;24.12;72.37
62895;BME280;49204;44.916;37.998;2022-08-05T04:23:04;100911.31;;;24.44;71.81
62895;BME280;49204;44.916;37.998;2022-08-05T04:25:32;100918.17;;;24.76;71.44
62895;BME280;49204;44.916;37.998;2022-08-05T04:28:01;100913.20;;;25.09;70.89
62895;BME280;49204;44.916;37.998;2022-08-05T04:30:30;100916.99;;;25.43;70.42
62895;BME280;49204;44.916;37.998;2022-08-05T04:32:58;100908.86;;;25.75;69.72
62895;BME280;49204;44.916;37.998;2022-08-05T04:35:27;100909.93;;;26.00;68.92
62895;BME280;49204;44.916;37.998;2022-08-05T04:37:55;100904.73;;;26.25;68.54
62895;BME280;49204;44.916;37.998;2022-08-05T04:40:24;100904.87;;;26.50;67.88
62895;BME280;49204;44.916;37.998;2022-08-05T04:42:53;100903.89;;;26.81;67.23
62895;BME280;49204;44.916;37.998;2022-08-05T04:45:21;100909.77;;;27.15;66.77
62895;BME280;49204;44.916;37.998;2022-08-05T04:47:51;100908.19;;;27.43;66.23
62895;BME280;49204;44.916;37.998;2022-08-05T04:50:20;100907.53;;;27.65;65.43
62895;BME280;49204;44.916;37.998;2022-08-05T04:52:49;100907.69;;;27.88;64.75
62895;BME280;49204;44.916;37.998;2022-08-05T04:55:17;100901.45;;;28.13;64.32
62895;BME280;49204;44.916;37.998;2022-08-05T04:57:46;100907.53;;;28.35;63.49
62895;BME280;49204;44.916;37.998;2022-08-05T05:00:15;100904.43;;;28.59;63.00
62895;BME280;49204;44.916;37.998;2022-08-05T05:02:43;100902.34;;;28.81;62.85
62895;BME280;49204;44.916;37.998;2022-08-05T05:05:12;100901.61;;;28.96;62.18
62895;BME280;49204;44.916;37.998;2022-08-05T05:07:40;100893.69;;;29.21;61.90
62895;BME280;49204;44.916;37.998;2022-08-05T05:10:09;100892.98;;;29.51;61.86
62895;BME280;49204;44.916;37.998;2022-08-05T05:12:38;100887.03;;;29.82;60.91
62895;BME280;49204;44.916;37.998;2022-08-05T05:15:07;100882.20;;;30.08;60.15
62895;BME280;49204;44.916;37.998;2022-08-05T05:17:40;100873.83;;;30.32;59.42
62895;BME280;49204;44.916;37.998;2022-08-05T05:20:11;100868.66;;;30.67;58.76
62895;BME280;49204;44.916;37.998;2022-08-05T05:22:41;100876.70;;;31.05;58.22
62895;BME280;49204;44.916;37.998;2022-08-05T05:25:09;100863.72;;;31.33;57.46
62895;BME280;49204;44.916;37.998;2022-08-05T05:27:38;100862.14;;;31.60;56.87
62895;BME280;49204;44.916;37.998;2022-08-05T05:30:08;100859.36;;;31.92;55.86
62895;BME280;49204;44.916;37.998;2022-08-05T05:32:37;100856.59;;;32.25;55.09
62895;BME280;49204;44.916;37.998;2022-08-05T05:35:06;100854.71;;;32.43;54.13
62895;BME280;49204;44.916;37.998;2022-08-05T05:37:49;100842.91;;;32.53;53.33
62895;BME280;49204;44.916;37.998;2022-08-05T05:40:20;100853.84;;;32.77;52.50
62895;BME280;49204;44.916;37.998;2022-08-05T05:42:49;100854.98;;;32.96;51.50
62895;BME280;49204;44.916;37.998;2022-08-05T05:45:19;100861.86;;;33.16;50.78
62895;BME280;49204;44.916;37.998;2022-08-05T05:47:48;100851.07;;;33.25;49.51
62895;BME280;49204;44.916;37.998;2022-08-05T05:50:18;100861.36;;;33.17;48.31
62895;BME280;49204;44.916;37.998;2022-08-05T05:52:47;100853.02;;;33.07;48.36
62895;BME280;49204;44.916;37.998;2022-08-05T05:55:16;100856.02;;;33.26;48.05
62895;BME280;49204;44.916;37.998;2022-08-05T05:57:46;100849.22;;;33.53;48.02
62895;BME280;49204;44.916;37.998;2022-08-05T06:00:17;100849.57;;;33.80;48.06
62895;BME280;49204;44.916;37.998;2022-08-05T06:02:46;100845.55;;;34.03;47.05
62895;BME280;49204;44.916;37.998;2022-08-05T06:05:15;100844.84;;;34.05;45.97
62895;BME280;49204;44.916;37.998;2022-08-05T06:07:45;100849.98;;;34.17;45.79
62895;BME280;49204;44.916;37.998;2022-08-05T06:10:15;100844.80;;;34.32;45.49
62895;BME280;49204;44.916;37.998;2022-08-05T06:12:44;100842.01;;;34.52;45.22
62895;BME280;49204;44.916;37.998;2022-08-05T06:15:12;100850.17;;;34.72;45.40
62895;BME280;49204;44.916;37.998;2022-08-05T06:17:41;100850.83;;;35.06;45.44
62895;BME280;49204;44.916;37.998;2022-08-05T06:20:10;100844.52;;;35.44;44.79
62895;BME280;49204;44.916;37.998;2022-08-05T06:22:39;100842.34;;;35.62;43.33
62895;BME280;49204;44.916;37.998;2022-08-05T06:25:08;100834.50;;;35.56;43.04
62895;BME280;49204;44.916;37.998;2022-08-05T06:27:37;100835.69;;;35.42;41.59
62895;BME280;49204;44.916;37.998;2022-08-05T06:30:07;100827.88;;;35.45;42.10
62895;BME280;49204;44.916;37.998;2022-08-05T06:32:36;100829.30;;;35.64;41.48
62895;BME280;49204;44.916;37.998;2022-08-05T06:35:06;100831.05;;;35.92;41.32
62895;BME280;49204;44.916;37.998;2022-08-05T06:37:34;100841.63;;;35.89;40.22
62895;BME280;49204;44.916;37.998;2022-08-05T06:40:04;100838.08;;;35.72;39.79
62895;BME280;49204;44.916;37.998;2022-08-05T06:42:33;100846.35;;;35.50;39.54
62895;BME280;49204;44.916;37.998;2022-08-05T06:45:01;100864.55;;;35.37;40.04
62895;BME280;49204;44.916;37.998;2022-08-05T06:47:30;100865.91;;;35.53;40.05
62895;BME280;49204;44.916;37.998;2022-08-05T06:49:59;100872.97;;;35.68;40.23
62895;BME280;49204;44.916;37.998;2022-08-05T06:52:27;100882.25;;;36.08;40.44
62895;BME280;49204;44.916;37.998;2022-08-05T06:54:56;100887.41;;;36.32;40.21
62895;BME280;49204;44.916;37.998;2022-08-05T06:57:25;100894.39;;;36.65;39.84
62895;BME280;49204;44.916;37.998;2022-08-05T06:59:53;100898.61;;;36.95;39.54
62895;BME280;49204;44.916;37.998;2022-08-05T07:02:22;100898.75;;;37.19;38.99
62895;BME280;49204;44.916;37.998;2022-08-05T07:04:50;100894.36;;;37.11;38.04
62895;BME280;49204;44.916;37.998;2022-08-05T07:07:19;100886.02;;;37.15;37.72
62895;BME280;49204;44.916;37.998;2022-08-05T07:09:47;100894.06;;;37.28;37.53
62895;BME280;49204;44.916;37.998;2022-08-05T07:12:16;100891.42;;;37.43;36.36
62895;BME280;49204;44.916;37.998;2022-08-05T07:15:02;100884.27;;;37.33;36.48
62895;BME280;49204;44.916;37.998;2022-08-05T07:17:33;100880.35;;;37.10;35.60
62895;BME280;49204;44.916;37.998;2022-08-05T07:20:01;100873.82;;;36.93;36.22
62895;BME280;49204;44.916;37.998;2022-08-05T07:22:30;100871.58;;;37.20;36.31
62895;BME280;49204;44.916;37.998;2022-08-05T07:25:00;100878.28;;;37.45;36.46
62895;BME280;49204;44.916;37.998;2022-08-05T07:27:29;100877.95;;;37.86;36.26
62895;BME280;49204;44.916;37.998;2022-08-05T07:29:58;100878.49;;;37.97;35.33
62895;BME280;49204;44.916;37.998;2022-08-05T07:32:27;100882.88;;;38.19;35.36
62895;BME280;49204;44.916;37.998;2022-08-05T07:34:56;100880.34;;;38.41;35.66
62895;BME280;49204;44.916;37.998;2022-08-05T07:37:24;100881.83;;;38.85;35.08
62895;BME280;49204;44.916;37.998;2022-08-05T07:39:53;100878.37;;;39.18;34.95
62895;BME280;49204;44.916;37.998;2022-08-05T07:42:21;100879.07;;;39.42;34.72
62895;BME280;49204;44.916;37.998;2022-08-05T07:44:50;100883.54;;;39.77;34.23
62895;BME280;49204;44.916;37.998;2022-08-05T07:47:18;100883.94;;;39.69;33.43
62895;BME280;49204;44.916;37.998;2022-08-05T07:49:47;100874.20;;;39.64;33.65
62895;BME280;49204;44.916;37.998;2022-08-05T07:52:19;100868.72;;;39.81;33.11
62895;BME280;49204;44.916;37.998;2022-08-05T07:54:47;100867.09;;;39.99;33.33
62895;BME280;49204;44.916;37.998;2022-08-05T07:57:16;100859.92;;;40.01;32.85
62895;BME280;49204;44.916;37.998;2022-08-05T07:59:45;100862.19;;;40.23;32.86
62895;BME280;49204;44.916;37.998;2022-08-05T08:02:13;100851.52;;;40.49;32.46
62895;BME280;49204;44.916;37.998;2022-08-05T08:04:42;100859.06;;;40.56;32.06
62895;BME280;49204;44.916;37.998;2022-08-05T08:07:11;100853.75;;;40.52;31.97
62895;BME280;49204;44.916;37.998;2022-08-05T08:09:39;100852.12;;;40.53;31.82
62895;BME280;49204;44.916;37.998;2022-08-05T08:12:08;100842.53;;;40.37;32.02
62895;BME280;49204;44.916;37.998;2022-08-05T08:14:37;100846.72;;;40.22;32.30
62895;BME280;49204;44.916;37.998;2022-08-05T08:17:05;100841.42;;;40.38;32.07
62895;BME280;49204;44.916;37.998;2022-08-05T08:19:38;100844.72;;;40.57;32.07
62895;BME280;49204;44.916;37.998;2022-08-05T08:22:08;100848.16;;;40.47;31.98
62895;BME280;49204;44.916;37.998;2022-08-05T08:24:38;100851.33;;;40.78;31.76
62895;BME280;49204;44.916;37.998;2022-08-05T08:27:07;100848.89;;;41.08;31.51
62895;BME280;49204;44.916;37.998;2022-08-05T08:29:35;100852.73;;;41.07;31.58
62895;BME280;49204;44.916;37.998;2022-08-05T08:32:04;100846.88;;;41.01;31.48
62895;BME280;49204;44.916;37.998;2022-08-05T08:34:32;100846.75;;;40.88;31.21
62895;BME280;49204;44.916;37.998;2022-08-05T08:37:01;100846.27;;;40.97;31.13
62895;BME280;49204;44.916;37.998;2022-08-05T08:39:30;100836.77;;;39.99;31.96
62895;BME280;49204;44.916;37.998;2022-08-05T08:41:59;100837.95;;;40.06;32.17
62895;BME280;49204;44.916;37.998;2022-08-05T08:44:30;100835.91;;;40.38;31.95
62895;BME280;49204;44.916;37.998;2022-08-05T08:47:00;100834.00;;;40.60;31.30
62895;BME280;49204;44.916;37.998;2022-08-05T08:49:32;100828.65;;;40.51;30.74
62895;BME280;49204;44.916;37.998;2022-08-05T08:52:05;100823.06;;;40.46;30.81
62895;BME280;49204;44.916;37.998;2022-08-05T08:54:32;100815.83;;;40.40;30.60
62895;BME280;49204;44.916;37.998;2022-08-05T08:57:01;100804.62;;;40.49;30.81
62895;BME280;49204;44.916;37.998;2022-08-05T08:59:30;100799.25;;;40.62;30.68
62895;BME280;49204;44.916;37.998;2022-08-05T09:02:00;100798.22;;;40.43;30.13
62895;BME280;49204;44.916;37.998;2022-08-05T09:04:29;100797.89;;;40.40;30.20
62895;BME280;49204;44.916;37.998;2022-08-05T09:06:58;100790.02;;;40.31;29.87
62895;BME280;49204;44.916;37.998;2022-08-05T09:09:27;100788.05;;;40.05;30.11
62895;BME280;49204;44.916;37.998;2022-08-05T09:11:55;100790.48;;;40.23;30.30
62895;BME280;49204;44.916;37.998;2022-08-05T09:14:24;100789.30;;;40.63;30.41
62895;BME280;49204;44.916;37.998;2022-08-05T09:16:53;100782.87;;;40.11;30.81
62895;BME280;49204;44.916;37.998;2022-08-05T09:19:22;100780.62;;;39.35;31.44
62895;BME280;49204;44.916;37.998;2022-08-05T09:21:51;100787.66;;;39.11;32.03
62895;BME280;49204;44.916;37.998;2022-08-05T09:24:20;100791.06;;;38.47;32.34
62895;BME280;49204;44.916;37.998;2022-08-05T09:26:54;100789.55;;;37.65;33.09
62895;BME280;49204;44.916;37.998;2022-08-05T09:58:40;100756.48;;;39.56;28.35
62895;BME280;49204;44.916;37.998;2022-08-05T10:01:10;100754.59;;;39.99;28.98
62895;BME280;49204;44.916;37.998;2022-08-05T10:03:55;100751.81;;;40.18;29.26
62895;BME280;49204;44.916;37.998;2022-08-05T10:06:26;100753.76;;;40.40;29.55
62895;BME280;49204;44.916;37.998;2022-08-05T10:08:55;100754.30;;;40.66;29.32
62895;BME280;49204;44.916;37.998;2022-08-05T10:11:25;100745.14;;;39.92;29.84
62895;BME280;49204;44.916;37.998;2022-08-05T10:13:53;100743.36;;;39.13;30.55
62895;BME280;49204;44.916;37.998;2022-08-05T10:16:33;100734.27;;;38.98;30.82
62895;BME280;49204;44.916;37.998;2022-08-05T10:19:02;100735.62;;;38.52;31.05
62895;BME280;49204;44.916;37.998;2022-08-05T10:21:31;100733.41;;;37.85;31.55
62895;BME280;49204;44.916;37.998;2022-08-05T10:23:59;100734.70;;;37.14;32.02
62895;BME280;49204;44.916;37.998;2022-08-05T10:26:28;100737.80;;;36.55;32.60
62895;BME280;49204;44.916;37.998;2022-08-05T10:28:57;100740.58;;;36.18;33.17
62895;BME280;49204;44.916;37.998;2022-08-05T10:31:26;100744.20;;;35.84;33.78
62895;BME280;49204;44.916;37.998;2022-08-05T10:33:56;100745.73;;;35.89;34.19
62895;BME280;49204;44.916;37.998;2022-08-05T10:36:24;100738.50;;;36.13;34.22
62895;BME280;49204;44.916;37.998;2022-08-05T10:38:58;100739.36;;;36.41;33.84
62895;BME280;49204;44.916;37.998;2022-08-05T10:41:39;100737.78;;;36.73;33.40
62895;BME280;49204;44.916;37.998;2022-08-05T10:44:08;100737.31;;;36.97;33.12
62895;BME280;49204;44.916;37.998;2022-08-05T10:46:45;100735.21;;;37.02;32.35
62895;BME280;49204;44.916;37.998;2022-08-05T10:49:14;100730.09;;;37.05;32.75
62895;BME280;49204;44.916;37.998;2022-08-05T10:51:48;100728.78;;;36.66;33.14
62895;BME280;49204;44.916;37.998;2022-08-05T10:54:17;100730.02;;;36.21;33.34
62895;BME280;49204;44.916;37.998;2022-08-05T10:56:47;100729.45;;;36.03;33.73
62895;BME280;49204;44.916;37.998;2022-08-05T10:59:18;100725.37;;;36.22;33.60
62895;BME280;49204;44.916;37.998;2022-08-05T11:01:47;100721.05;;;36.44;33.71
62895;BME280;49204;44.916;37.998;2022-08-05T11:04:20;100716.52;;;36.68;33.16
62895;BME280;49204;44.916;37.998;2022-08-05T11:09:44;100694.95;;;36.72;33.02
62895;BME280;49204;44.916;37.998;2022-08-05T11:15:29;100675.92;;;36.59;32.97
62895;BME280;49204;44.916;37.998;2022-08-05T11:20:45;100687.61;;;36.54;33.89
62895;BME280;49204;44.916;37.998;2022-08-05T11:53:10;100703.64;;;33.23;39.93
62895;BME280;49204;44.916;37.998;2022-08-05T11:55:56;100708.86;;;33.04;39.96
62895;BME280;49204;44.916;37.998;2022-08-05T11:58:35;100697.98;;;32.84;40.25
62895;BME280;49204;44.916;37.998;2022-08-05T12:01:15;100697.98;;;32.60;40.05
62895;BME280;49204;44.916;37.998;2022-08-05T12:03:49;100686.06;;;32.44;40.60
62895;BME280;49204;44.916;37.998;2022-08-05T12:06:22;100675.87;;;32.28;40.75
62895;BME280;49204;44.916;37.998;2022-08-05T12:08:53;100687.36;;;32.17;41.01
62895;BME280;49204;44.916;37.998;2022-08-05T12:11:26;100691.56;;;32.02;41.31
62895;BME280;49204;44.916;37.998;2022-08-05T12:16:45;100699.70;;;31.78;41.94
62895;BME280;49204;44.916;37.998;2022-08-05T12:19:15;100701.27;;;31.48;43.26
62895;BME280;49204;44.916;37.998;2022-08-05T12:21:48;100702.07;;;31.21;44.14
62895;BME280;49204;44.916;37.998;2022-08-05T12:24:20;100707.55;;;30.99;44.69
62895;BME280;49204;44.916;37.998;2022-08-05T12:26:52;100724.73;;;30.85;45.25
62895;BME280;49204;44.916;37.998;2022-08-05T12:29:22;100735.51;;;30.67;45.81
62895;BME280;49204;44.916;37.998;2022-08-05T12:31:53;100736.27;;;30.50;46.43
62895;BME280;49204;44.916;37.998;2022-08-05T12:34:34;100747.16;;;30.35;46.89
62895;BME280;49204;44.916;37.998;2022-08-05T12:37:04;100756.53;;;30.18;47.42
62895;BME280;49204;44.916;37.998;2022-08-05T12:39:29;100754.59;;;29.93;48.36
62895;BME280;49204;44.916;37.998;2022-08-05T12:42:00;100756.60;;;29.80;48.30
62895;BME280;49204;44.916;37.998;2022-08-05T12:44:29;100764.38;;;29.64;48.54
62895;BME280;49204;44.916;37.998;2022-08-05T12:46:57;100757.19;;;29.52;48.67
62895;BME280;49204;44.916;37.998;2022-08-05T12:49:41;100759.73;;;29.35;48.91
62895;BME280;49204;44.916;37.998;2022-08-05T12:52:15;100755.05;;;29.24;48.94
62895;BME280;49204;44.916;37.998;2022-08-05T12:54:46;100756.48;;;29.16;49.01
62895;BME280;49204;44.916;37.998;2022-08-05T12:57:18;100753.79;;;29.08;49.12
62895;BME280;49204;44.916;37.998;2022-08-05T12:59:50;100742.67;;;28.99;49.22
62895;BME280;49204;44.916;37.998;2022-08-05T13:02:26;100736.77;;;28.95;49.36
62895;BME280;49204;44.916;37.998;2022-08-05T13:04:55;100720.34;;;28.97;49.35
62895;BME280;49204;44.916;37.998;2022-08-05T13:07:25;100724.75;;;28.94;49.77
62895;BME280;49204;44.916;37.998;2022-08-05T13:09:56;100718.57;;;28.85;50.17
62895;BME280;49204;44.916;37.998;2022-08-05T13:12:27;100723.81;;;28.82;50.30
62895;BME280;49204;44.916;37.998;2022-08-05T13:14:58;100724.58;;;28.72;50.94
62895;BME280;49204;44.916;37.998;2022-08-05T13:17:30;100711.42;;;28.65;50.94
62895;BME280;49204;44.916;37.998;2022-08-05T13:20:10;100703.70;;;28.54;51.22
62895;BME280;49204;44.916;37.998;2022-08-05T13:22:49;100698.60;;;28.50;51.12
62895;BME280;49204;44.916;37.998;2022-08-05T13:25:19;100698.88;;;28.64;50.71
62895;BME280;49204;44.916;37.998;2022-08-05T13:27:50;100702.48;;;28.83;50.41
62895;BME280;49204;44.916;37.998;2022-08-05T13:30:21;100709.94;;;29.04;50.08
62895;BME280;49204;44.916;37.998;2022-08-05T13:32:53;100705.84;;;29.32;49.71
62895;BME280;49204;44.916;37.998;2022-08-05T13:35:22;100709.17;;;29.57;49.38
62895;BME280;49204;44.916;37.998;2022-08-05T13:37:53;100709.92;;;29.85;48.96
62895;BME280;49204;44.916;37.998;2022-08-05T13:40:21;100709.34;;;29.89;48.93
62895;BME280;49204;44.916;37.998;2022-08-05T13:42:50;100712.00;;;29.93;49.02
62895;BME280;49204;44.916;37.998;2022-08-05T13:45:18;100715.99;;;30.01;48.89
62895;BME280;49204;44.916;37.998;2022-08-05T13:47:47;100713.93;;;30.03;48.94
62895;BME280;49204;44.916;37.998;2022-08-05T13:50:16;100714.98;;;30.13;48.79
62895;BME280;49204;44.916;37.998;2022-08-05T13:52:44;100712.73;;;30.17;48.63
62895;BME280;49204;44.916;37.998;2022-08-05T13:55:13;100716.22;;;30.11;48.90
62895;BME280;49204;44.916;37.998;2022-08-05T13:57:41;100709.72;;;30.16;48.84
62895;BME280;49204;44.916;37.998;2022-08-05T14:00:11;100713.36;;;30.23;48.73
62895;BME280;49204;44.916;37.998;2022-08-05T14:02:40;100718.83;;;30.34;48.72
62895;BME280;49204;44.916;37.998;2022-08-05T14:05:08;100716.57;;;30.37;48.64
62895;BME280;49204;44.916;37.998;2022-08-05T14:07:40;100717.22;;;30.39;48.29
62895;BME280;49204;44.916;37.998;2022-08-05T14:10:11;100714.50;;;30.39;48.04
62895;BME280;49204;44.916;37.998;2022-08-05T14:12:41;100716.57;;;30.37;47.63
62895;BME280;49204;44.916;37.998;2022-08-05T14:15:11;100726.27;;;30.36;47.44
62895;BME280;49204;44.916;37.998;2022-08-05T14:17:40;100725.43;;;30.35;47.31
62895;BME280;49204;44.916;37.998;2022-08-05T14:20:10;100729.84;;;30.36;47.66